Chadstone Weather > Observations for 29/03/21

Select Day:



Observations
Time Temp Hum DP Wind Gust Dir Rain >9am Press
C % C kph kph mm hPa
00:00 16.4 82 13.3 0.0 0.0 N 0.0 1009.3
00:10 16.3 82 13.2 0.0 0.0 N 0.0 1009.4
00:20 16.4 83 13.5 0.0 0.0 N 0.0 1009.4
00:30 16.4 82 13.3 1.4 7.2 WNW 0.0 1009.5
00:40 16.4 82 13.3 3.7 13.3 W 0.0 1009.5
00:50 16.4 81 13.1 3.1 9.7 WSW 0.0 1009.6
01:00 16.3 80 12.9 2.2 9.7 W 0.0 1009.6
01:10 16.2 80 12.8 0.5 6.1 W 0.0 1009.6
01:20 16.1 81 12.8 3.4 11.2 WNW 0.0 1009.6
01:30 16.0 81 12.7 2.9 11.2 W 0.0 1009.6
01:40 16.1 82 13.0 3.7 9.7 W 0.0 1009.7
01:50 16.1 82 13.0 3.0 9.7 WNW 0.0 1009.7
02:00 16.1 82 13.0 3.1 8.6 WNW 0.0 1009.6
02:10 16.1 82 13.0 4.0 11.2 NW 0.0 1009.5
02:20 16.1 81 12.8 2.7 7.2 NW 0.0 1009.7
02:30 16.1 81 12.8 3.3 7.2 NW 0.0 1009.6
02:40 16.1 80 12.7 2.8 9.7 NW 0.0 1009.7
02:50 16.1 80 12.7 3.9 9.7 W 0.0 1009.7
03:00 16.1 79 12.5 3.7 8.6 WNW 0.0 1009.7
03:10 16.1 79 12.5 6.1 12.2 W 0.0 1009.7
03:20 16.1 79 12.5 4.9 12.2 W 0.0 1009.7
03:30 16.1 79 12.5 4.1 14.8 W 0.0 1009.7
03:40 16.2 79 12.6 2.9 7.2 WSW 0.0 1009.8
03:50 16.1 80 12.7 4.3 9.7 W 0.0 1009.6
04:00 16.1 80 12.7 2.7 7.2 W 0.0 1009.7
04:10 16.1 81 12.8 4.0 12.2 SW 0.0 1009.8
04:20 16.1 82 13.0 2.2 8.6 WNW 0.0 1009.7
04:30 16.0 82 12.9 2.8 8.6 WNW 0.0 1009.7
04:40 16.0 82 12.9 4.1 13.3 W 0.0 1009.7
04:50 16.0 83 13.1 4.8 12.2 W 0.0 1009.7
05:00 16.0 83 13.1 4.7 15.8 WSW 0.0 1009.9
05:10 16.0 84 13.3 4.6 14.8 W 0.0 1010.0
05:20 15.9 86 13.6 2.7 8.6 WNW 0.3 1010.0
05:30 15.8 88 13.8 2.1 9.7 WSW 0.3 1010.1
05:40 15.7 90 14.1 1.8 11.2 SSW 0.6 1010.2
05:50 15.4 91 13.9 0.3 5.0 SSW 0.9 1010.2
06:00 15.2 92 13.9 0.5 7.2 SW 1.5 1010.4
06:10 15.1 93 14.0 0.4 8.6 SSW 1.8 1010.5
06:20 15.0 94 14.0 0.6 6.1 SW 1.8 1010.7
06:30 14.9 95 14.1 0.1 3.6 WSW 1.8 1010.8
06:40 15.0 95 14.2 0.0 1.1 SW 1.8 1010.9
06:50 15.0 95 14.2 0.0 2.5 SW 1.8 1011.0
07:00 14.9 96 14.3 0.4 7.2 SW 1.8 1011.2
07:10 14.8 97 14.3 0.2 5.0 SW 1.8 1011.5
07:20 14.7 97 14.2 0.3 3.6 SW 2.1 1011.5
07:30 14.7 97 14.2 0.1 2.5 SSW 2.1 1011.5
07:40 14.6 97 14.1 0.0 2.5 SSW 2.1 1011.6
07:50 14.5 97 14.0 0.2 2.5 SW 2.1 1011.7
08:00 14.5 97 14.0 0.1 6.1 SW 2.1 1011.9
08:10 14.6 97 14.1 0.0 3.6 W 2.1 1011.8
08:20 14.8 97 14.3 0.3 6.1 SW 2.1 1012.2
08:30 14.9 97 14.4 0.0 0.0 N 2.1 1012.2
08:40 14.9 97 14.4 0.0 0.0 N 2.1 1012.3
08:50 14.8 96 14.2 0.0 1.1 SSE 2.1 1012.4
09:00 14.8 96 14.2 0.0 2.5 SSW 2.1 1012.5
09:10 14.6 96 14.0 0.2 5.0 S 2.1 1012.7
09:20 14.9 95 14.1 0.0 2.5 SSW 2.1 1012.8
09:30 15.1 93 14.0 0.1 3.6 SW 2.1 1012.7
09:40 15.3 92 14.0 0.0 1.1 NE 2.1 1012.7
09:50 15.4 91 13.9 0.0 0.0 N 2.1 1012.8
10:00 15.6 90 14.0 0.0 3.6 SW 0.0 1013.0
10:10 15.7 88 13.7 0.0 2.5 WSW 0.0 1013.2
10:20 15.9 87 13.7 2.8 9.7 SSE 0.0 1013.5
10:30 16.0 85 13.5 2.2 12.2 SSW 0.0 1013.7
10:40 16.2 84 13.5 4.0 11.2 S 0.0 1013.8
10:50 16.5 82 13.4 6.9 17.3 SE 0.0 1013.7
11:00 16.7 81 13.4 5.4 14.8 SE 0.0 1013.8
11:10 16.9 77 12.9 3.0 12.2 WSW 0.0 1013.9
11:20 16.8 73 11.9 2.9 17.3 SW 0.0 1014.0
11:30 17.3 71 12.0 3.6 15.8 SSW 0.0 1014.0
11:40 17.2 68 11.3 2.8 12.2 WNW 0.0 1013.9
11:50 17.7 66 11.3 4.0 11.2 SSW 0.0 1013.7
12:00 18.2 66 11.8 2.4 12.2 WSW 0.0 1013.6
12:10 18.3 65 11.6 1.9 13.3 SSW 0.0 1013.6
12:20 17.9 64 11.0 1.7 11.2 SW 0.0 1013.5
12:30 18.0 65 11.3 3.1 12.2 SSW 0.0 1013.5
12:40 17.8 63 10.7 1.9 9.7 SE 0.0 1013.7
12:50 17.9 63 10.8 2.0 13.3 SW 0.0 1013.5
13:00 18.2 63 11.0 2.8 14.8 S 0.0 1013.4
13:10 18.0 61 10.4 2.2 12.2 S 0.0 1013.5
13:20 18.4 59 10.3 2.8 11.2 WSW 0.0 1013.4
13:30 18.7 58 10.3 1.3 12.2 SSW 0.0 1013.3
13:40 18.8 58 10.4 1.8 12.2 WSW 0.0 1013.2
13:50 18.6 58 10.2 1.4 12.2 ENE 0.0 1013.1
14:00 18.8 56 9.8 2.6 11.2 SSE 0.0 1013.3
14:10 19.0 56 10.0 1.6 9.7 S 0.0 1013.1
14:20 19.0 55 9.8 3.3 14.8 W 0.0 1013.0
14:30 18.8 57 10.1 1.9 12.2 SSW 0.0 1012.8
14:40 19.0 56 10.0 2.0 15.8 WSW 0.0 1012.7
14:50 18.8 57 10.1 1.6 11.2 SW 0.0 1012.6
15:00 18.5 57 9.8 0.8 12.2 SSW 0.0 1012.5
15:10 18.8 57 10.1 2.2 12.2 SW 0.0 1012.4
15:20 18.7 58 10.3 2.2 12.2 WSW 0.0 1012.6
15:30 18.6 58 10.2 2.5 14.8 SSW 0.0 1012.6
15:40 18.9 58 10.5 3.3 13.3 W 0.0 1012.7
15:50 18.8 57 10.1 2.4 18.4 SW 0.0 1012.6
16:00 18.6 58 10.2 2.3 8.6 SSE 0.0 1012.6
16:10 18.6 59 10.4 1.7 12.2 SSW 0.0 1012.8
16:20 18.4 59 10.3 3.9 13.3 WSW 0.0 1012.9
16:30 18.3 59 10.2 2.3 12.2 SW 0.0 1012.8
16:40 18.4 58 10.0 1.2 14.8 SSW 0.0 1012.6
16:50 18.3 58 9.9 3.2 13.3 SSW 0.0 1012.7
17:00 18.3 57 9.6 1.5 13.3 SSE 0.0 1012.7
17:10 18.4 57 9.7 4.8 13.3 SSE 0.0 1012.9
17:20 18.2 57 9.6 4.4 18.4 SSW 0.0 1013.0
17:30 18.1 58 9.7 2.3 11.2 SSW 0.0 1013.0
17:40 17.9 58 9.5 2.4 13.3 SSE 0.0 1013.0
17:50 17.9 59 9.8 3.0 11.2 SSE 0.0 1013.2
18:00 17.8 60 9.9 0.9 9.7 W 0.0 1013.1
18:10 17.5 61 9.9 1.1 9.7 S 0.0 1013.2
18:20 17.3 62 10.0 0.6 8.6 S 0.0 1013.3
18:30 17.3 62 10.0 0.5 7.2 S 0.0 1013.4
18:40 17.2 63 10.1 1.0 9.7 SSE 0.0 1013.4
18:50 16.9 65 10.3 0.4 5.0 SSE 0.0 1013.4
19:00 16.7 66 10.3 0.1 3.6 SSE 0.0 1013.6
19:10 16.5 66 10.1 0.1 3.6 SSW 0.0 1013.8
19:20 16.3 67 10.2 0.1 6.1 WSW 0.0 1013.9
19:30 16.1 67 10.0 0.0 5.0 SSW 0.0 1013.9
19:40 16.0 68 10.1 0.0 3.6 W 0.0 1014.0
19:50 15.8 69 10.1 0.3 6.1 SW 0.0 1014.3
20:00 15.8 69 10.1 0.8 7.2 SSW 0.0 1014.3
20:10 15.7 69 10.0 1.7 8.6 S 0.0 1014.4
20:20 15.5 69 9.8 1.6 8.6 S 0.0 1014.5
20:30 15.4 68 9.5 2.9 9.7 SSE 0.0 1014.7
20:40 15.3 67 9.2 3.1 8.6 SSW 0.0 1014.8
20:50 15.1 67 9.0 3.4 9.7 SSW 0.0 1014.9
21:00 15.0 68 9.1 1.8 8.6 SSW 0.0 1015.1
21:10 14.9 69 9.3 1.5 8.6 WSW 0.0 1015.1
21:20 14.7 69 9.1 0.4 6.1 SSW 0.0 1015.1
21:30 14.5 70 9.1 0.1 5.0 SSW 0.0 1015.0
21:40 14.2 71 9.0 0.7 5.0 S 0.0 1015.0
21:50 14.1 72 9.1 0.2 3.6 S 0.0 1015.0
22:00 14.0 73 9.2 0.2 2.5 S 0.0 1015.2
22:10 13.8 75 9.5 0.0 2.5 S 0.0 1015.4
22:20 13.5 75 9.2 0.0 0.0 N 0.0 1015.4
22:30 13.3 75 9.0 0.0 0.0 N 0.0 1015.3
22:40 13.0 76 8.9 0.0 0.0 N 0.0 1015.3
22:50 12.8 77 8.9 0.0 0.0 N 0.0 1015.3
23:00 12.7 78 9.0 0.0 0.0 N 0.0 1015.3
23:10 12.5 78 8.8 0.0 0.0 N 0.0 1015.5
23:20 12.2 79 8.7 0.0 0.0 N 0.0 1015.6
23:30 12.1 80 8.8 0.0 0.0 N 0.0 1015.3
23:40 12.0 81 8.8 0.0 0.0 N 0.0 1015.4
23:50 11.9 82 8.9 0.0 0.0 N 0.0 1015.4